Time;durP1;ratioP1;P1;durP2;ratioP2;P2;SDS_P1;SDS_P2;PMS_P1;PMS_P2;Temp;Humidity;BMP_temperature;BMP_pressure;BME280_temperature;BME280_humidity;BME280_pressure;Samples;Min_cycle;Max_cycle;Signal;HPM_P1;HPM_P2
2022/06/21 00:00:00;;;;;;;11.43;7.20;;;;;;;11.04;94.03;101494.19;172068;28;903;-67
2022/06/21 00:00:09;;;;;;;11.88;7.20;;;;;;;11.03;94.28;101492.50;171986;28;907;-67
2022/06/21 00:00:21;;;;;;;12.55;7.15;;;;;;;11.04;94.07;101490.72;171981;28;1155;-67
2022/06/21 00:00:29;;;;;;;12.73;7.17;;;;;;;11.03;94.25;101487.25;171926;28;1241;-67
2022/06/21 00:00:35;;;;;;;13.53;7.30;;;;;;;11.04;94.45;101488.97;171846;28;1240;-67
2022/06/21 00:00:41;;;;;;;13.03;7.23;;;;;;;11.03;94.30;101487.25;172013;28;1006;-67
2022/06/21 00:00:49;;;;;;;12.50;7.30;;;;;;;11.02;95.00;101485.53;171987;28;892;-67
2022/06/21 00:00:59;;;;;;;11.73;7.20;;;;;;;11.04;94.54;101488.09;172040;28;876;-67
2022/06/21 00:01:05;;;;;;;11.84;7.30;;;;;;;11.03;94.26;101486.41;172019;28;1150;-67
2022/06/21 00:01:16;;;;;;;12.77;7.23;;;;;;;11.02;94.67;101495.97;172023;28;915;-67
2022/06/21 00:01:23;;;;;;;13.55;7.30;;;;;;;11.01;94.67;101489.06;171966;28;1147;-67
2022/06/21 00:01:31;;;;;;;14.27;7.27;;;;;;;11.01;94.71;101489.06;172005;28;1581;-67
2022/06/21 00:01:36;;;;;;;14.50;7.30;;;;;;;10.99;94.57;101488.28;172066;28;916;-67
2022/06/21 00:01:42;;;;;;;14.55;7.35;;;;;;;11.00;95.11;101484.75;171985;28;1036;-67
2022/06/21 00:01:47;;;;;;;14.27;7.30;;;;;;;11.00;95.11;101483.88;171996;28;963;-67
2022/06/21 00:01:53;;;;;;;14.40;7.50;;;;;;;11.01;94.37;101491.66;172007;28;923;-67
2022/06/21 00:01:59;;;;;;;14.13;7.50;;;;;;;11.01;94.94;101489.06;172017;28;860;-67
2022/06/21 00:02:05;;;;;;;13.90;7.50;;;;;;;11.00;94.40;101487.38;172274;28;1006;-67
2022/06/21 00:02:14;;;;;;;14.90;7.60;;;;;;;11.01;94.88;101494.28;172730;28;950;-67
2022/06/21 00:02:20;;;;;;;14.35;7.61;;;;;;;11.01;94.31;101488.19;172667;28;1146;-67
2022/06/21 00:02:26;;;;;;;14.83;7.73;;;;;;;11.00;95.01;101479.53;172701;28;864;-67
2022/06/21 00:02:33;;;;;;;14.35;7.82;;;;;;;11.00;94.30;101484.75;172573;28;832;-67
2022/06/21 00:02:38;;;;;;;13.04;7.74;;;;;;;11.00;95.31;101487.38;172068;28;915;-67
2022/06/21 00:02:46;;;;;;;12.35;7.75;;;;;;;10.99;94.51;101485.66;172052;28;947;-67
2022/06/21 00:03:01;;;;;;;12.72;7.62;;;;;;;10.98;94.77;101489.16;172038;28;911;-67
2022/06/21 00:03:13;;;;;;;12.66;7.71;;;;;;;11.00;94.74;101486.50;172079;28;1234;-67
2022/06/21 00:03:24;;;;;;;13.98;8.05;;;;;;;11.00;95.22;101494.34;172050;28;1230;-67
2022/06/21 00:03:30;;;;;;;14.99;8.32;;;;;;;11.00;95.23;101489.13;172018;28;1241;-67
2022/06/21 00:03:36;;;;;;;14.30;8.13;;;;;;;10.99;94.93;101479.56;171885;28;1396;-67
2022/06/21 00:03:44;;;;;;;13.20;8.15;;;;;;;10.99;95.23;101485.66;172001;28;983;-67
2022/06/21 00:03:51;;;;;;;13.16;8.22;;;;;;;10.99;95.16;101490.03;172006;28;900;-67
2022/06/21 00:03:57;;;;;;;13.36;8.10;;;;;;;10.98;94.84;101483.94;172001;28;1053;-67
2022/06/21 00:04:02;;;;;;;14.02;8.02;;;;;;;10.99;95.34;101475.22;172022;28;1034;-66
2022/06/21 00:04:08;;;;;;;14.55;8.13;;;;;;;10.99;94.98;101488.28;172008;28;848;-67
2022/06/21 00:04:14;;;;;;;14.50;7.97;;;;;;;10.99;95.27;101488.28;172038;28;844;-67
2022/06/21 00:04:19;;;;;;;13.93;7.77;;;;;;;10.99;94.96;101485.66;172036;28;836;-67
2022/06/21 00:04:25;;;;;;;12.90;7.68;;;;;;;10.98;95.25;101489.16;171951;28;859;-67
2022/06/21 00:04:31;;;;;;;12.77;7.63;;;;;;;10.98;95.54;101489.16;171997;28;995;-67
2022/06/21 00:04:36;;;;;;;13.57;7.63;;;;;;;10.98;95.49;101483.94;172033;28;1049;-67
2022/06/21 00:04:42;;;;;;;13.77;7.60;;;;;;;10.98;95.02;101483.94;171944;28;903;-66
2022/06/21 00:04:48;;;;;;;13.60;7.55;;;;;;;10.98;95.23;101483.09;172003;28;836;-67
2022/06/21 00:04:54;;;;;;;13.10;7.63;;;;;;;10.98;94.74;101483.94;172007;28;1002;-67
2022/06/21 00:05:01;;;;;;;12.65;7.65;;;;;;;10.98;95.30;101486.56;171987;28;915;-67
2022/06/21 00:05:23;;;;;;;12.58;7.56;;;;;;;10.98;95.43;101483.94;172006;28;903;-67
2022/06/21 00:05:41;;;;;;;13.02;7.63;;;;;;;10.94;95.08;101484.94;171877;28;1348;-67
2022/06/21 00:05:50;;;;;;;12.99;8.18;;;;;;;10.93;95.47;101491.09;172662;28;1485;-67
2022/06/21 00:05:57;;;;;;;13.19;8.40;;;;;;;10.93;95.23;101485.84;172661;28;1083;-66
2022/06/21 00:06:03;;;;;;;13.50;8.16;;;;;;;10.92;95.15;101484.16;172680;28;914;-67
2022/06/21 00:06:14;;;;;;;13.27;8.10;;;;;;;10.92;94.95;101486.78;172726;28;979;-67
2022/06/21 00:06:25;;;;;;;13.71;8.00;;;;;;;10.92;95.58;101485.00;172669;28;1234;-67
2022/06/21 00:06:31;;;;;;;13.57;8.01;;;;;;;10.93;95.44;101480.63;172027;28;1235;-67
2022/06/21 00:06:36;;;;;;;12.73;8.13;;;;;;;10.92;95.93;101489.38;172108;28;879;-67
2022/06/21 00:06:42;;;;;;;13.43;8.20;;;;;;;10.92;95.97;101485.00;171967;28;856;-67
2022/06/21 00:06:48;;;;;;;12.07;8.15;;;;;;;10.92;95.82;101485.00;172072;28;1023;-67
2022/06/21 00:06:53;;;;;;;11.23;8.02;;;;;;;10.93;95.37;101485.84;172016;28;967;-66
2022/06/21 00:07:03;;;;;;;12.43;8.13;;;;;;;10.92;95.85;101485.00;172079;28;911;-67
2022/06/21 00:07:18;;;;;;;13.26;8.16;;;;;;;10.92;95.88;101479.78;172073;28;2383;-66
2022/06/21 00:07:28;;;;;;;14.66;8.23;;;;;;;10.91;95.80;101482.44;172011;28;1234;-67
2022/06/21 00:07:33;;;;;;;14.71;8.16;;;;;;;10.90;96.17;101485.97;171926;28;1339;-67
2022/06/21 00:07:39;;;;;;;14.17;8.07;;;;;;;10.91;96.38;101487.66;172065;28;1089;-67
2022/06/21 00:07:44;;;;;;;12.75;8.02;;;;;;;10.90;95.61;101480.72;172015;28;966;-67
2022/06/21 00:07:50;;;;;;;12.67;8.20;;;;;;;10.90;96.26;101481.59;171948;28;868;-67
2022/06/21 00:07:58;;;;;;;12.65;8.27;;;;;;;10.90;96.09;101483.34;171996;28;1217;-67
2022/06/21 00:08:11;;;;;;;12.37;8.30;;;;;;;10.91;96.15;101485.03;172011;28;927;-67
2022/06/21 00:08:24;;;;;;;12.43;8.13;;;;;;;10.89;95.99;101484.25;171980;28;1272;-67
2022/06/21 00:08:35;;;;;;;12.25;7.89;;;;;;;10.90;96.22;101488.56;171852;28;2484;-67
2022/06/21 00:08:41;;;;;;;13.96;8.08;;;;;;;10.88;95.96;101485.16;171998;28;1235;-67
2022/06/21 00:08:47;;;;;;;13.97;8.13;;;;;;;10.88;96.00;101486.00;171952;28;1093;-67
2022/06/21 00:08:53;;;;;;;14.15;8.27;;;;;;;10.88;95.80;101487.78;171963;28;789;-67
2022/06/21 00:08:58;;;;;;;12.57;8.23;;;;;;;10.89;95.96;101489.47;172006;28;974;-67
2022/06/21 00:09:04;;;;;;;11.63;8.00;;;;;;;10.87;95.84;101486.06;172026;28;907;-67
2022/06/21 00:09:13;;;;;;;12.70;8.00;;;;;;;10.87;95.89;101491.28;172054;28;765;-67
2022/06/21 00:09:20;;;;;;;14.66;8.06;;;;;;;10.87;96.05;101491.28;171976;28;1112;-67
2022/06/21 00:09:26;;;;;;;15.78;7.94;;;;;;;10.87;96.27;101493.88;171987;28;931;-67
2022/06/21 00:09:32;;;;;;;16.45;8.10;;;;;;;10.88;96.45;101485.16;172008;28;958;-67
2022/06/21 00:09:37;;;;;;;16.30;8.10;;;;;;;10.86;96.44;101482.59;172099;28;963;-67
2022/06/21 00:09:43;;;;;;;15.52;8.23;;;;;;;10.87;96.12;101493.88;172077;28;1034;-67
2022/06/21 00:09:50;;;;;;;15.20;8.43;;;;;;;10.87;95.89;101493.88;172076;28;947;-67
2022/06/21 00:09:57;;;;;;;15.60;8.68;;;;;;;10.86;95.94;101490.44;172029;28;987;-67
2022/06/21 00:10:06;;;;;;;16.05;8.65;;;;;;;10.85;96.51;101488.75;172048;28;972;-67
2022/06/21 00:10:18;;;;;;;16.23;8.90;;;;;;;10.87;96.56;101491.28;172045;28;1115;-67
2022/06/21 00:10:24;;;;;;;16.86;8.82;;;;;;;10.86;96.69;101490.44;172041;28;1248;-67
2022/06/21 00:10:34;;;;;;;15.77;8.68;;;;;;;10.87;96.93;101491.28;172082;28;879;-67
2022/06/21 00:10:40;;;;;;;15.61;8.43;;;;;;;10.88;96.73;101493.00;172018;28;1090;-67
2022/06/21 00:10:47;;;;;;;13.70;8.10;;;;;;;10.87;96.60;101491.28;172043;28;908;-67
2022/06/21 00:10:56;;;;;;;13.24;8.12;;;;;;;10.87;96.63;101491.28;171880;28;1142;-67
2022/06/21 00:11:09;;;;;;;12.70;8.24;;;;;;;10.87;97.17;101491.28;172014;28;1072;-67
2022/06/21 00:11:21;;;;;;;12.26;8.29;;;;;;;10.87;96.36;101488.66;171976;28;1253;-67
2022/06/21 00:11:32;;;;;;;13.85;8.34;;;;;;;10.87;96.44;101492.13;171987;28;1221;-67
2022/06/21 00:11:38;;;;;;;15.86;8.40;;;;;;;10.89;96.92;101497.31;171994;28;1241;-67
2022/06/21 00:11:43;;;;;;;15.40;8.40;;;;;;;10.88;96.55;101495.63;171986;28;974;-67
2022/06/21 00:11:48;;;;;;;15.07;8.32;;;;;;;10.89;96.70;101486.88;172077;28;823;-67
2022/06/21 00:11:54;;;;;;;14.43;8.30;;;;;;;10.88;96.21;101493.00;172019;28;860;-67
2022/06/21 00:12:00;;;;;;;15.98;8.40;;;;;;;10.89;96.32;101489.47;172021;28;931;-67
2022/06/21 00:12:06;;;;;;;15.33;8.37;;;;;;;10.90;96.87;101499.00;172022;28;891;-67
2022/06/21 00:12:13;;;;;;;15.63;8.43;;;;;;;10.89;96.40;101492.09;172060;28;943;-67
2022/06/21 00:12:21;;;;;;;15.68;8.36;;;;;;;10.90;96.56;101493.78;172027;28;887;-67
2022/06/21 00:12:27;;;;;;;15.50;8.26;;;;;;;10.90;96.66;101493.78;171897;28;1390;-67
2022/06/21 00:12:32;;;;;;;13.40;8.17;;;;;;;10.89;96.49;101495.56;172044;28;891;-67
2022/06/21 00:12:37;;;;;;;13.68;8.10;;;;;;;10.89;96.49;101495.56;172000;28;962;-67
2022/06/21 00:12:43;;;;;;;13.70;7.87;;;;;;;10.89;96.37;101492.09;171996;28;1078;-67
2022/06/21 00:12:48;;;;;;;12.93;7.90;;;;;;;10.90;96.41;101496.41;171961;28;979;-67
2022/06/21 00:12:54;;;;;;;12.15;7.82;;;;;;;10.90;96.15;101491.19;172734;28;789;-67
2022/06/21 00:13:13;;;;;;;13.40;7.90;;;;;;;10.90;96.53;101491.19;172585;28;1101;-67
2022/06/21 00:13:29;;;;;;;13.18;8.02;;;;;;;10.89;96.49;101487.72;172689;28;1242;-67
2022/06/21 00:13:34;;;;;;;13.90;8.16;;;;;;;10.90;96.49;101496.41;172645;28;1259;-67
2022/06/21 00:13:40;;;;;;;14.90;7.73;;;;;;;10.90;96.13;101491.19;171906;28;1522;-67
2022/06/21 00:13:46;;;;;;;15.50;7.60;;;;;;;10.89;96.66;101495.56;172002;28;1031;-67
2022/06/21 00:13:52;;;;;;;15.23;7.60;;;;;;;10.90;96.92;101491.19;172037;28;880;-67
2022/06/21 00:13:58;;;;;;;14.80;7.64;;;;;;;10.90;96.51;101492.03;171203;28;1416;-67
2022/06/21 00:14:03;;;;;;;13.93;7.80;;;;;;;10.90;96.50;101491.19;171333;28;978;-67
2022/06/21 00:14:09;;;;;;;13.63;7.93;;;;;;;10.90;96.20;101486.81;171336;28;860;-67
2022/06/21 00:14:14;;;;;;;13.10;8.05;;;;;;;10.91;96.41;101492.88;171364;28;757;-67
2022/06/21 00:14:20;;;;;;;13.67;8.17;;;;;;;10.91;96.44;101495.50;171381;28;999;-67
2022/06/21 00:14:25;;;;;;;14.30;8.30;;;;;;;10.91;96.54;101490.25;171334;28;998;-67
2022/06/21 00:14:31;;;;;;;14.60;8.20;;;;;;;10.91;96.75;101492.88;171308;28;995;-67
2022/06/21 00:14:37;;;;;;;14.98;8.23;;;;;;;10.91;96.71;101490.25;171276;28;1972;-67
2022/06/21 00:14:43;;;;;;;14.73;8.20;;;;;;;10.91;96.66;101492.88;171338;28;928;-67
2022/06/21 00:14:49;;;;;;;14.30;8.00;;;;;;;10.91;96.39;101496.34;171391;28;899;-67
2022/06/21 00:14:55;;;;;;;13.37;7.70;;;;;;;10.93;96.09;101485.84;171392;28;844;-67
2022/06/21 00:15:00;;;;;;;14.48;7.60;;;;;;;10.93;96.04;101491.09;171338;28;852;-67
2022/06/21 00:15:06;;;;;;;14.30;7.50;;;;;;;10.93;96.30;101496.31;171291;28;1070;-67
2022/06/21 00:15:12;;;;;;;13.82;7.50;;;;;;;10.92;96.31;101489.38;171269;28;1054;-67
2022/06/21 00:15:18;;;;;;;13.77;7.43;;;;;;;10.93;96.33;101491.09;171384;28;895;-67
2022/06/21 00:15:23;;;;;;;12.68;7.47;;;;;;;10.93;96.74;101491.09;171299;28;925;-67
2022/06/21 00:15:29;;;;;;;12.60;7.70;;;;;;;10.92;96.68;101494.59;171307;28;1074;-67
2022/06/21 00:15:36;;;;;;;11.88;7.85;;;;;;;10.93;96.66;101496.31;171322;28;836;-67
2022/06/21 00:15:44;;;;;;;13.40;7.95;;;;;;;10.93;96.59;101491.09;171999;28;1022;-67
2022/06/21 00:15:55;;;;;;;13.13;8.30;;;;;;;10.93;96.63;101485.84;172033;28;1050;-66
2022/06/21 00:16:06;;;;;;;13.26;8.17;;;;;;;10.94;96.46;101492.78;172061;28;1246;-67
2022/06/21 00:16:15;;;;;;;12.33;8.00;;;;;;;10.94;96.00;101487.56;172001;28;1251;-67
2022/06/21 00:16:23;;;;;;;12.54;7.74;;;;;;;10.93;96.73;101493.69;172074;28;1065;-67
2022/06/21 00:16:31;;;;;;;12.68;7.70;;;;;;;10.93;96.99;101488.47;172063;28;973;-67
2022/06/21 00:16:37;;;;;;;12.08;7.67;;;;;;;10.93;96.14;101491.09;172037;28;1744;-67
2022/06/21 00:16:43;;;;;;;13.63;7.77;;;;;;;10.93;96.58;101496.31;172099;28;981;-67
2022/06/21 00:16:48;;;;;;;13.55;7.90;;;;;;;10.93;96.13;101485.84;172067;28;781;-67
2022/06/21 00:16:54;;;;;;;13.40;7.97;;;;;;;10.93;96.17;101485.84;172047;28;943;-67
2022/06/21 00:16:59;;;;;;;14.85;8.10;;;;;;;10.93;96.47;101485.84;172047;28;947;-67
2022/06/21 00:17:08;;;;;;;15.77;8.07;;;;;;;10.93;97.02;101489.34;172042;28;1066;-67
2022/06/21 00:17:19;;;;;;;14.10;8.10;;;;;;;10.93;97.08;101486.72;172056;28;1117;-67
2022/06/21 00:17:25;;;;;;;14.71;8.19;;;;;;;10.92;96.18;101489.38;171932;28;1265;-67
2022/06/21 00:17:30;;;;;;;13.55;8.27;;;;;;;10.93;96.26;101486.72;172030;28;872;-67
2022/06/21 00:17:39;;;;;;;13.20;8.20;;;;;;;10.92;96.43;101486.78;171683;28;1081;-67
2022/06/21 00:17:49;;;;;;;13.58;8.20;;;;;;;10.90;96.81;101486.81;171055;28;977;-67
2022/06/21 00:17:54;;;;;;;13.19;8.23;;;;;;;10.88;97.13;101487.78;172008;28;1150;-67
2022/06/21 00:18:00;;;;;;;14.48;8.25;;;;;;;10.87;96.51;101484.31;171870;28;1175;-67
2022/06/21 00:18:12;;;;;;;15.45;8.50;;;;;;;10.86;96.98;101489.56;171965;28;868;-67
2022/06/21 00:18:24;;;;;;;16.27;8.46;;;;;;;10.87;97.63;101486.06;171955;28;1574;-66
2022/06/21 00:18:34;;;;;;;18.37;8.60;;;;;;;10.87;97.19;101486.06;172023;28;979;-67
2022/06/21 00:18:42;;;;;;;17.86;8.40;;;;;;;10.86;97.17;101498.28;171905;28;1498;-67
2022/06/21 00:18:49;;;;;;;15.97;8.35;;;;;;;10.86;96.92;101489.56;171974;28;1006;-67
2022/06/21 00:18:56;;;;;;;13.20;8.27;;;;;;;10.85;97.10;101493.97;172010;28;966;-67
2022/06/21 00:19:02;;;;;;;13.47;8.20;;;;;;;10.84;97.07;101492.22;172002;28;955;-67
2022/06/21 00:19:19;;;;;;;12.70;8.20;;;;;;;10.79;97.57;101489.78;171998;28;990;-67
2022/06/21 00:19:25;;;;;;;14.16;8.32;;;;;;;10.78;97.57;101488.06;171953;28;1296;-67
2022/06/21 00:19:31;;;;;;;13.37;8.33;;;;;;;10.78;97.75;101492.47;171985;28;1026;-67
2022/06/21 00:19:37;;;;;;;12.84;8.36;;;;;;;10.78;98.15;101490.69;171215;28;1229;-67
2022/06/21 00:19:44;;;;;;;13.77;8.50;;;;;;;10.79;97.97;101495.03;171312;28;933;-67
2022/06/21 00:19:50;;;;;;;15.15;8.40;;;;;;;10.80;97.73;101491.50;171320;28;970;-67
2022/06/21 00:19:56;;;;;;;16.17;8.20;;;;;;;10.81;97.72;101493.19;171328;28;1003;-67
2022/06/21 00:20:01;;;;;;;16.42;8.05;;;;;;;10.81;97.52;101490.59;171976;28;903;-67
2022/06/21 00:20:13;;;;;;;16.43;7.90;;;;;;;10.81;97.94;101493.19;171971;28;908;-67
2022/06/21 00:20:24;;;;;;;14.24;7.69;;;;;;;10.83;97.45;101490.53;171886;28;1772;-67
2022/06/21 00:20:30;;;;;;;12.15;8.10;;;;;;;10.82;97.39;101496.66;171945;28;1084;-67
2022/06/21 00:20:35;;;;;;;12.40;8.20;;;;;;;10.83;97.44;101490.53;172015;28;891;-67
2022/06/21 00:20:41;;;;;;;12.82;8.18;;;;;;;10.82;96.95;101494.91;172002;28;943;-67
2022/06/21 00:20:48;;;;;;;12.35;8.25;;;;;;;10.82;96.79;101489.66;172044;28;971;-67
2022/06/21 00:20:54;;;;;;;12.04;8.08;;;;;;;10.84;97.43;101496.63;171992;28;959;-66
2022/06/21 00:21:00;;;;;;;11.97;8.07;;;;;;;10.81;97.60;101495.81;171989;28;808;-67
2022/06/21 00:21:17;;;;;;;12.17;8.03;;;;;;;10.82;97.48;101494.91;171957;28;1568;-67
2022/06/21 00:21:28;;;;;;;13.50;8.40;;;;;;;10.82;97.68;101494.91;171968;28;1240;-67
2022/06/21 00:21:39;;;;;;;14.17;8.43;;;;;;;10.81;97.25;101497.56;172037;28;1250;-67
2022/06/21 00:21:46;;;;;;;13.18;8.24;;;;;;;10.81;96.98;101495.81;172635;28;1227;-67
2022/06/21 00:21:52;;;;;;;14.20;8.20;;;;;;;10.79;97.80;101492.41;172707;28;1133;-67
2022/06/21 00:21:57;;;;;;;14.15;8.13;;;;;;;10.79;97.20;101489.78;172636;28;872;-67
2022/06/21 00:22:03;;;;;;;16.20;8.35;;;;;;;10.78;97.18;101497.69;172653;28;927;-67
2022/06/21 00:22:14;;;;;;;17.08;8.50;;;;;;;10.77;97.03;101494.19;172640;28;1018;-66
2022/06/21 00:22:20;;;;;;;17.24;8.49;;;;;;;10.78;97.67;101487.22;172689;28;1157;-66
2022/06/21 00:22:26;;;;;;;16.97;8.60;;;;;;;10.78;97.81;101493.28;172674;28;991;-66
2022/06/21 00:22:32;;;;;;;16.35;8.75;;;;;;;10.77;97.14;101491.59;171912;28;1063;-67
2022/06/21 00:22:38;;;;;;;15.80;8.73;;;;;;;10.77;97.21;101491.59;172007;28;1014;-67
2022/06/21 00:22:44;;;;;;;15.48;8.85;;;;;;;10.78;97.54;101495.06;171871;28;943;-67
2022/06/21 00:22:49;;;;;;;14.85;8.77;;;;;;;10.78;97.51;101493.28;172025;28;933;-66
2022/06/21 00:22:55;;;;;;;15.68;8.80;;;;;;;10.78;97.62;101487.22;171944;28;1880;-67
2022/06/21 00:23:00;;;;;;;16.40;8.70;;;;;;;10.78;97.22;101492.47;171978;28;903;-67
2022/06/21 00:23:10;;;;;;;16.37;8.73;;;;;;;10.79;97.52;101495.03;171993;28;840;-67
2022/06/21 00:23:25;;;;;;;16.13;8.55;;;;;;;10.79;97.21;101495.03;171974;28;1138;-67
2022/06/21 00:23:32;;;;;;;15.45;8.60;;;;;;;10.79;97.88;101492.41;171950;28;1364;-67
2022/06/21 00:23:37;;;;;;;14.52;8.58;;;;;;;10.78;97.73;101490.69;171954;28;1058;-67
2022/06/21 00:23:44;;;;;;;15.07;8.60;;;;;;;10.78;97.51;101493.28;171984;28;966;-67
2022/06/21 00:23:53;;;;;;;15.50;8.53;;;;;;;10.79;97.37;101494.16;172052;28;939;-67
2022/06/21 00:23:59;;;;;;;14.53;8.50;;;;;;;10.79;97.90;101489.78;172049;28;966;-67
2022/06/21 00:24:06;;;;;;;14.35;8.40;;;;;;;10.79;97.20;101489.78;172020;28;975;-67
2022/06/21 00:24:17;;;;;;;13.47;8.43;;;;;;;10.81;97.71;101497.56;172048;28;855;-67
2022/06/21 00:24:23;;;;;;;12.66;8.51;;;;;;;10.78;97.12;101493.28;172021;28;1241;-67
2022/06/21 00:24:28;;;;;;;13.43;8.75;;;;;;;10.80;97.72;101496.72;171976;28;1519;-67
2022/06/21 00:24:34;;;;;;;13.67;8.77;;;;;;;10.80;97.26;101495.84;172670;28;989;-67
2022/06/21 00:24:40;;;;;;;12.95;8.68;;;;;;;10.79;97.44;101491.53;172540;28;1441;-67
2022/06/21 00:24:46;;;;;;;12.95;8.52;;;;;;;10.78;97.25;101490.69;172670;28;986;-67
2022/06/21 00:24:52;;;;;;;13.35;8.38;;;;;;;10.78;97.54;101498.50;172626;28;847;-67
2022/06/21 00:24:57;;;;;;;12.20;8.07;;;;;;;10.78;97.61;101495.91;171988;28;836;-67
2022/06/21 00:25:16;;;;;;;11.27;7.93;;;;;;;10.79;98.02;101494.16;171983;28;986;-67
2022/06/21 00:25:25;;;;;;;11.09;7.83;;;;;;;10.78;97.54;101492.47;171962;28;1270;-67
2022/06/21 00:25:31;;;;;;;10.57;7.90;;;;;;;10.78;97.59;101498.50;171917;28;1156;-67
2022/06/21 00:25:36;;;;;;;10.63;7.93;;;;;;;10.78;97.54;101498.50;172009;28;845;-67
2022/06/21 00:25:45;;;;;;;10.77;8.00;;;;;;;10.79;97.01;101496.75;172029;28;887;-67
2022/06/21 00:25:51;;;;;;;11.06;8.17;;;;;;;10.77;96.86;101486.38;172016;28;975;-67
2022/06/21 00:25:58;;;;;;;11.53;8.23;;;;;;;10.76;96.89;101495.13;172011;28;1074;-67
2022/06/21 00:26:04;;;;;;;12.43;8.40;;;;;;;10.77;97.37;101498.56;172007;28;947;-67
2022/06/21 00:26:13;;;;;;;14.18;8.60;;;;;;;10.74;97.49;101489.06;171994;28;907;-67
2022/06/21 00:26:23;;;;;;;14.53;8.71;;;;;;;10.75;97.24;101503.84;171983;28;1061;-67
2022/06/21 00:26:30;;;;;;;14.69;8.68;;;;;;;10.77;97.50;101496.81;171640;28;1406;-67
2022/06/21 00:26:36;;;;;;;13.03;8.40;;;;;;;10.75;97.52;101498.63;172029;28;773;-67
2022/06/21 00:26:43;;;;;;;11.95;8.23;;;;;;;10.76;97.31;101495.13;171981;28;927;-67
2022/06/21 00:26:48;;;;;;;11.97;8.17;;;;;;;10.77;97.37;101494.19;172026;28;865;-67
2022/06/21 00:26:54;;;;;;;12.63;8.10;;;;;;;10.77;97.26;101495.94;172019;28;868;-67
2022/06/21 00:26:59;;;;;;;13.32;8.20;;;;;;;10.75;97.22;101496.03;171977;28;998;-67
2022/06/21 00:27:13;;;;;;;13.63;8.30;;;;;;;10.74;97.60;101490.84;171989;28;836;-66
2022/06/21 00:27:21;;;;;;;14.54;8.43;;;;;;;10.72;97.67;101492.66;171915;28;1528;-67
2022/06/21 00:27:27;;;;;;;14.22;8.32;;;;;;;10.70;97.94;101495.31;172011;28;958;-67
2022/06/21 00:27:32;;;;;;;13.73;8.35;;;;;;;10.67;97.82;101493.66;171928;28;891;-67
2022/06/21 00:27:38;;;;;;;14.90;8.50;;;;;;;10.67;97.59;101498.88;171936;28;1033;-67
2022/06/21 00:27:43;;;;;;;15.73;8.30;;;;;;;10.64;97.92;101495.53;171994;28;816;-67
2022/06/21 00:27:50;;;;;;;15.73;8.37;;;;;;;10.62;98.21;101492.97;172001;28;856;-67
2022/06/21 00:27:56;;;;;;;17.52;8.50;;;;;;;10.63;98.70;101499.00;171999;28;973;-67
2022/06/21 00:28:02;;;;;;;17.52;8.43;;;;;;;10.62;98.75;101492.09;171990;28;986;-67
2022/06/21 00:28:08;;;;;;;16.75;8.10;;;;;;;10.61;98.17;101491.22;172004;28;911;-67
2022/06/21 00:28:15;;;;;;;16.37;8.23;;;;;;;10.63;98.12;101499.00;172030;28;982;-67
2022/06/21 00:28:23;;;;;;;15.50;8.07;;;;;;;10.66;98.32;101493.69;172038;28;965;-67
2022/06/21 00:28:28;;;;;;;14.16;7.96;;;;;;;10.67;98.08;101500.63;172553;28;978;-67
2022/06/21 00:28:34;;;;;;;14.83;8.23;;;;;;;10.67;98.59;101490.16;172672;28;871;-66
2022/06/21 00:28:40;;;;;;;14.50;8.43;;;;;;;10.68;98.36;101495.34;172675;28;915;-66
2022/06/21 00:28:46;;;;;;;13.45;8.30;;;;;;;10.68;98.20;101497.13;172667;28;916;-67
2022/06/21 00:28:51;;;;;;;13.70;8.35;;;;;;;10.68;97.84;101492.75;172632;28;923;-67
2022/06/21 00:28:58;;;;;;;13.98;8.38;;;;;;;10.69;97.83;101498.81;172634;28;916;-67
2022/06/21 00:29:03;;;;;;;13.37;8.00;;;;;;;10.69;97.93;101488.38;172705;28;793;-67
2022/06/21 00:29:11;;;;;;;13.00;7.85;;;;;;;10.69;98.03;101499.69;172681;28;962;-67
2022/06/21 00:29:16;;;;;;;13.60;7.80;;;;;;;10.70;97.77;101495.31;172672;28;1081;-67
2022/06/21 00:29:22;;;;;;;15.20;7.88;;;;;;;10.70;97.76;101495.31;172704;28;939;-67
2022/06/21 00:29:27;;;;;;;16.20;8.10;;;;;;;10.70;97.55;101490.09;172588;28;871;-67
2022/06/21 00:29:33;;;;;;;16.38;8.23;;;;;;;10.71;97.74;101491.78;172668;28;923;-67
2022/06/21 00:29:38;;;;;;;16.37;8.23;;;;;;;10.72;98.10;101490.91;172588;28;978;-67
2022/06/21 00:29:45;;;;;;;16.35;8.32;;;;;;;10.71;97.73;101491.78;171940;28;868;-67
2022/06/21 00:29:50;;;;;;;14.77;8.13;;;;;;;10.72;97.49;101490.91;172054;28;979;-67
2022/06/21 00:29:55;;;;;;;13.10;7.73;;;;;;;10.72;97.68;101493.50;172018;28;915;-67
2022/06/21 00:30:01;;;;;;;11.40;7.55;;;;;;;10.73;97.44;101489.13;171985;28;1162;-67
2022/06/21 00:30:07;;;;;;;11.00;7.35;;;;;;;10.73;97.10;101495.22;171952;28;1030;-67
2022/06/21 00:30:16;;;;;;;11.20;7.35;;;;;;;10.72;96.96;101488.28;171251;28;1068;-67
2022/06/21 00:30:23;;;;;;;11.73;7.40;;;;;;;10.72;97.64;101493.50;171274;28;1261;-67
2022/06/21 00:30:30;;;;;;;12.60;7.67;;;;;;;10.72;97.01;101493.50;171317;28;1034;-67
2022/06/21 00:30:35;;;;;;;12.55;7.78;;;;;;;10.73;97.08;101484.75;171216;28;1259;-67
2022/06/21 00:30:42;;;;;;;12.40;7.82;;;;;;;10.73;96.66;101491.72;171349;28;915;-67
2022/06/21 00:30:52;;;;;;;11.47;7.80;;;;;;;10.73;96.75;101490.00;170573;28;2383;-67
2022/06/21 00:30:57;;;;;;;10.96;7.66;;;;;;;10.72;96.71;101490.91;170654;29;1265;-67
2022/06/21 00:31:03;;;;;;;11.07;7.63;;;;;;;10.72;96.97;101485.69;170676;29;907;-67
2022/06/21 00:31:24;;;;;;;11.43;7.57;;;;;;;10.73;96.87;101484.75;170695;29;781;-67
2022/06/21 00:31:35;;;;;;;12.64;7.54;;;;;;;10.73;96.85;101486.50;170615;29;1241;-66
2022/06/21 00:31:49;;;;;;;15.84;7.91;;;;;;;10.72;96.86;101483.06;170738;28;1229;-67
2022/06/21 00:31:55;;;;;;;15.85;8.09;;;;;;;10.72;97.14;101483.06;171331;28;1233;-67
2022/06/21 00:32:00;;;;;;;14.37;8.10;;;;;;;10.72;97.15;101483.06;171316;28;1004;-67
2022/06/21 00:32:16;;;;;;;12.93;7.95;;;;;;;10.73;96.92;101479.53;171334;28;824;-67
2022/06/21 00:32:21;;;;;;;12.01;7.84;;;;;;;10.72;96.61;101485.69;172019;28;1234;-67
2022/06/21 00:32:27;;;;;;;12.02;7.90;;;;;;;10.72;97.29;101482.19;172019;28;943;-67
2022/06/21 00:32:32;;;;;;;11.37;7.87;;;;;;;10.72;96.67;101484.81;172008;28;831;-66
2022/06/21 00:32:38;;;;;;;11.07;7.85;;;;;;;10.72;97.04;101477.84;171989;28;832;-67
2022/06/21 00:32:47;;;;;;;11.40;7.93;;;;;;;10.72;97.30;101477.84;171965;28;935;-67
2022/06/21 00:32:55;;;;;;;11.16;7.93;;;;;;;10.71;96.92;101475.28;172103;28;1043;-66
2022/06/21 00:33:01;;;;;;;11.23;8.03;;;;;;;10.71;97.41;101481.34;171975;28;1065;-67
2022/06/21 00:33:18;;;;;;;11.95;8.27;;;;;;;10.72;97.79;101485.69;171995;28;837;-67
2022/06/21 00:33:24;;;;;;;12.32;8.30;;;;;;;10.72;96.96;101482.19;172031;28;1244;-67
2022/06/21 00:33:30;;;;;;;13.72;8.36;;;;;;;10.71;97.37;101476.13;172032;28;970;-67
2022/06/21 00:33:35;;;;;;;14.23;8.23;;;;;;;10.72;97.64;101476.97;172033;28;879;-67
2022/06/21 00:33:41;;;;;;;14.17;8.10;;;;;;;10.72;97.24;101477.84;172051;28;1022;-67
2022/06/21 00:33:48;;;;;;;14.85;8.20;;;;;;;10.72;97.41;101483.06;171882;28;1024;-67
2022/06/21 00:33:55;;;;;;;15.10;8.10;;;;;;;10.71;97.52;101473.50;172056;28;982;-67
2022/06/21 00:34:18;;;;;;;14.30;7.86;;;;;;;10.71;97.38;101476.13;171970;28;1010;-67
2022/06/21 00:34:24;;;;;;;13.84;7.76;;;;;;;10.72;97.13;101482.19;171908;28;2774;-67
2022/06/21 00:34:30;;;;;;;13.10;7.88;;;;;;;10.70;97.15;101479.63;171976;28;868;-67
2022/06/21 00:34:35;;;;;;;13.13;7.97;;;;;;;10.71;97.28;101481.34;172005;28;915;-67
2022/06/21 00:34:43;;;;;;;13.47;8.20;;;;;;;10.70;97.51;101482.25;171929;28;1972;-67
2022/06/21 00:34:48;;;;;;;13.72;8.18;;;;;;;10.71;97.96;101485.72;171984;28;1077;-67
2022/06/21 00:34:54;;;;;;;13.35;8.13;;;;;;;10.71;97.12;101481.34;172055;28;851;-67
2022/06/21 00:34:59;;;;;;;13.20;8.23;;;;;;;10.71;97.55;101483.94;171936;28;1512;-67
2022/06/21 00:35:13;;;;;;;12.73;8.23;;;;;;;10.71;97.90;101478.72;171956;28;896;-67
2022/06/21 00:35:22;;;;;;;13.13;8.24;;;;;;;10.71;97.59;101486.56;171964;28;1275;-67